Time;durP1;ratioP1;P1;durP2;ratioP2;P2;SDS_P1;SDS_P2;PMS_P1;PMS_P2;Temp;Humidity;BMP_temperature;BMP_pressure;BME280_temperature;BME280_humidity;BME280_pressure;Samples;Min_cycle;Max_cycle;Signal;HPM_P1;HPM_P2
2021/01/11 00:01:46;;;;;;;10.43;7.90;;;2.10;99.90;;;;;;5039522;28;20457;-74
2021/01/11 00:04:12;;;;;;;11.90;7.97;;;2.10;99.90;;;;;;5034851;28;20437;-73
2021/01/11 00:06:41;;;;;;;11.23;7.97;;;2.00;99.90;;;;;;5038937;28;20922;-73
2021/01/11 00:09:07;;;;;;;12.23;9.10;;;2.00;99.90;;;;;;5035165;28;20426;-73
2021/01/11 00:11:35;;;;;;;9.73;8.67;;;1.90;99.90;;;;;;5034665;28;20461;-74
2021/01/11 00:14:04;;;;;;;13.80;8.47;;;1.90;99.90;;;;;;5034750;28;20455;-74
2021/01/11 00:16:30;;;;;;;13.40;8.40;;;1.80;99.90;;;;;;5034327;28;20433;-73
2021/01/11 00:18:56;;;;;;;12.87;9.30;;;1.70;99.90;;;;;;5034486;28;20458;-73
2021/01/11 00:21:22;;;;;;;10.87;8.03;;;1.60;99.90;;;;;;5029701;28;20845;-73
2021/01/11 00:23:47;;;;;;;15.73;7.90;;;1.50;99.90;;;;;;5027354;28;20203;-73
2021/01/11 00:26:13;;;;;;;11.67;8.77;;;1.50;99.90;;;;;;5026936;28;20437;-73
2021/01/11 00:28:40;;;;;;;11.40;8.30;;;1.50;99.90;;;;;;5028424;28;20267;-74
2021/01/11 00:31:05;;;;;;;15.17;9.00;;;1.60;99.90;;;;;;5034941;28;20567;-73
2021/01/11 00:33:31;;;;;;;14.20;8.70;;;1.70;99.90;;;;;;5034890;28;20433;-75
2021/01/11 00:35:57;;;;;;;13.97;8.77;;;1.60;99.90;;;;;;5034937;28;20171;-74
2021/01/11 00:38:22;;;;;;;15.80;8.60;;;1.60;99.90;;;;;;5034817;28;20675;-73
2021/01/11 00:40:48;;;;;;;12.23;8.60;;;1.60;99.90;;;;;;5034612;28;20203;-74
2021/01/11 00:43:13;;;;;;;10.67;7.53;;;1.50;99.90;;;;;;5034950;28;20202;-73
2021/01/11 00:45:39;;;;;;;17.90;7.77;;;1.40;99.90;;;;;;5035261;28;20186;-74
2021/01/11 00:48:05;;;;;;;12.50;8.30;;;1.30;99.90;;;;;;5033470;28;20261;-74
2021/01/11 00:50:31;;;;;;;11.07;7.80;;;1.20;99.90;;;;;;5033042;28;20191;-73
2021/01/11 00:52:57;;;;;;;15.27;7.67;;;1.20;99.90;;;;;;5033268;28;20512;-73
2021/01/11 00:55:23;;;;;;;10.00;6.97;;;1.20;99.90;;;;;;5033669;28;20420;-74
2021/01/11 00:57:48;;;;;;;8.10;6.80;;;1.10;99.90;;;;;;5033800;28;20250;-74
2021/01/11 01:00:15;;;;;;;10.00;8.33;;;1.10;99.90;;;;;;5034083;28;20301;-73
2021/01/11 01:02:41;;;;;;;9.20;6.90;;;1.20;99.90;;;;;;5032791;28;20182;-73
2021/01/11 01:05:10;;;;;;;11.23;7.63;;;1.30;99.90;;;;;;5032848;28;20445;-73
2021/01/11 01:07:37;;;;;;;10.10;6.63;;;1.30;99.90;;;;;;5032932;28;20546;-74
2021/01/11 01:10:04;;;;;;;12.17;7.80;;;1.30;99.90;;;;;;5033750;28;20440;-74
2021/01/11 01:12:30;;;;;;;10.10;7.53;;;1.40;99.90;;;;;;5034212;28;20414;-75
2021/01/11 01:14:56;;;;;;;10.13;6.40;;;1.40;99.90;;;;;;5033277;28;20465;-74
2021/01/11 01:17:22;;;;;;;9.67;7.33;;;1.20;99.90;;;;;;5034179;28;20752;-74
2021/01/11 01:19:47;;;;;;;7.53;6.63;;;1.20;99.90;;;;;;5032774;28;20200;-74
2021/01/11 01:22:13;;;;;;;10.63;6.80;;;1.40;99.90;;;;;;5032864;28;20179;-74
2021/01/11 01:24:38;;;;;;;8.90;6.73;;;1.50;99.90;;;;;;5031318;28;20560;-73
2021/01/11 01:27:04;;;;;;;10.03;6.70;;;1.60;99.90;;;;;;5032067;28;20175;-73
2021/01/11 01:29:30;;;;;;;8.07;6.43;;;1.50;99.90;;;;;;5033324;28;20627;-74
2021/01/11 01:31:55;;;;;;;8.90;5.93;;;1.50;99.90;;;;;;5033731;28;20174;-74
2021/01/11 01:34:21;;;;;;;11.50;6.10;;;1.60;99.90;;;;;;5032373;28;20688;-74
2021/01/11 01:36:47;;;;;;;6.93;5.50;;;1.50;99.90;;;;;;5033083;28;20182;-74
2021/01/11 01:39:12;;;;;;;8.90;5.40;;;1.40;99.90;;;;;;5033807;28;20191;-74
2021/01/11 01:41:38;;;;;;;9.73;6.20;;;1.50;99.90;;;;;;5033438;28;20178;-74
2021/01/11 01:44:04;;;;;;;6.60;5.60;;;1.40;99.90;;;;;;5031144;28;20210;-73
2021/01/11 01:46:31;;;;;;;8.70;5.60;;;1.40;99.90;;;;;;5033832;28;20648;-74
2021/01/11 01:49:00;;;;;;;7.73;5.70;;;1.40;99.90;;;;;;5031823;28;20192;-74
2021/01/11 01:51:26;;;;;;;9.53;7.17;;;1.40;99.90;;;;;;5032611;28;20496;-74
2021/01/11 01:53:51;;;;;;;5.67;4.37;;;1.40;99.90;;;;;;5030330;28;20820;-74
2021/01/11 01:56:18;;;;;;;10.20;5.57;;;1.40;99.90;;;;;;5033473;28;20543;-73
2021/01/11 01:58:46;;;;;;;6.43;4.30;;;1.40;99.90;;;;;;5032718;28;20179;-74
2021/01/11 02:01:12;;;;;;;10.30;4.97;;;1.30;99.90;;;;;;5033499;28;20900;-74
2021/01/11 02:03:38;;;;;;;5.40;4.43;;;1.30;99.90;;;;;;5030215;28;20453;-74
2021/01/11 02:06:03;;;;;;;6.00;3.60;;;1.30;99.90;;;;;;5032874;28;20183;-73
2021/01/11 02:08:50;;;;;;;5.80;5.20;;;1.20;99.90;;;;;;5032803;28;20182;-73
2021/01/11 02:11:35;;;;;;;7.10;4.90;;;1.20;99.90;;;;;;5032007;28;20289;-74
2021/01/11 02:14:19;;;;;;;7.87;4.67;;;1.30;99.90;;;;;;5033045;28;20787;-74
2021/01/11 02:16:54;;;;;;;6.33;4.77;;;1.40;99.90;;;;;;5032623;28;20940;-74
2021/01/11 02:19:37;;;;;;;7.17;4.60;;;1.40;99.90;;;;;;5031944;28;20461;-74
2021/01/11 02:22:21;;;;;;;7.20;4.70;;;1.30;99.90;;;;;;5013248;28;20469;-74
2021/01/11 02:25:25;;;;;;;10.37;4.07;;;1.20;99.90;;;;;;5023407;28;20430;-74
2021/01/11 02:27:57;;;;;;;5.10;3.97;;;1.20;99.90;;;;;;5032847;28;20428;-75
2021/01/11 02:30:27;;;;;;;7.33;4.30;;;1.20;99.90;;;;;;5032392;28;20937;-75
2021/01/11 02:32:58;;;;;;;6.00;3.97;;;1.20;99.90;;;;;;5032403;28;20438;-75
2021/01/11 02:35:25;;;;;;;5.63;3.60;;;1.20;99.90;;;;;;5029920;28;20427;-75
2021/01/11 02:37:52;;;;;;;9.10;4.73;;;1.30;99.90;;;;;;5032859;28;20402;-74
2021/01/11 02:40:18;;;;;;;9.23;4.30;;;1.20;99.90;;;;;;5030981;28;20462;-74
2021/01/11 02:42:43;;;;;;;5.90;4.13;;;1.30;99.90;;;;;;5032729;28;20407;-75
2021/01/11 02:45:10;;;;;;;6.53;4.60;;;1.30;99.90;;;;;;5031570;28;20179;-75
2021/01/11 02:47:57;;;;;;;6.30;4.67;;;1.20;99.90;;;;;;5032720;28;20198;-74
2021/01/11 02:50:25;;;;;;;5.20;3.87;;;1.20;99.90;;;;;;5032055;28;20775;-75
2021/01/11 02:53:00;;;;;;;3.67;3.30;;;1.20;99.90;;;;;;5032474;28;20419;-75
2021/01/11 02:55:36;;;;;;;6.40;5.20;;;1.10;99.90;;;;;;5032020;28;20437;-73
2021/01/11 02:58:11;;;;;;;4.77;3.27;;;1.10;99.90;;;;;;5032748;28;20905;-75
2021/01/11 03:00:40;;;;;;;11.70;7.50;;;1.20;99.90;;;;;;5024455;28;20492;-75
2021/01/11 03:03:11;;;;;;;12.83;9.07;;;1.20;99.90;;;;;;5030145;28;20834;-74
2021/01/11 03:05:37;;;;;;;4.33;3.93;;;1.30;99.90;;;;;;5031561;28;20433;-75
2021/01/11 03:08:03;;;;;;;5.03;3.37;;;1.40;99.90;;;;;;5032525;28;20403;-74
2021/01/11 03:10:29;;;;;;;7.07;4.43;;;1.40;99.90;;;;;;5031660;28;20538;-75
2021/01/11 03:12:54;;;;;;;6.60;4.20;;;1.40;99.90;;;;;;5031849;28;20433;-74
2021/01/11 03:15:20;;;;;;;5.47;3.53;;;1.40;99.90;;;;;;5029779;28;20213;-73
2021/01/11 03:17:46;;;;;;;7.37;4.00;;;1.50;99.90;;;;;;5030658;28;20206;-75
2021/01/11 03:20:13;;;;;;;7.20;3.60;;;1.50;99.90;;;;;;5031459;28;20214;-75
2021/01/11 03:22:39;;;;;;;3.77;3.33;;;1.40;99.90;;;;;;5030122;28;20516;-75
2021/01/11 03:25:06;;;;;;;4.97;3.90;;;1.50;99.90;;;;;;5031569;28;20440;-75
2021/01/11 03:27:31;;;;;;;9.17;4.27;;;1.60;99.90;;;;;;5032132;28;20452;-74
2021/01/11 03:29:57;;;;;;;6.20;3.20;;;1.50;99.90;;;;;;5030928;28;20438;-75
2021/01/11 03:32:23;;;;;;;9.57;4.77;;;1.20;99.90;;;;;;5032006;28;20570;-74
2021/01/11 03:34:48;;;;;;;5.97;3.70;;;1.30;99.90;;;;;;5030913;28;20238;-74
2021/01/11 03:37:14;;;;;;;5.33;3.40;;;1.40;99.90;;;;;;5031555;28;20181;-74
2021/01/11 03:39:40;;;;;;;5.27;3.83;;;1.40;99.90;;;;;;5031433;28;20267;-75
2021/01/11 03:42:05;;;;;;;4.30;3.50;;;1.10;99.90;;;;;;5031799;28;20179;-74
2021/01/11 03:44:31;;;;;;;4.47;3.50;;;1.10;99.90;;;;;;5030207;28;20309;-74
2021/01/11 03:46:56;;;;;;;6.30;4.13;;;1.20;99.90;;;;;;5012286;28;20215;-74
2021/01/11 03:49:23;;;;;;;8.83;4.10;;;1.10;99.90;;;;;;5013825;28;20175;-75
2021/01/11 03:51:48;;;;;;;5.20;4.20;;;1.10;99.90;;;;;;5031413;28;20191;-75
2021/01/11 03:54:14;;;;;;;4.67;4.20;;;1.10;99.90;;;;;;5032216;28;20422;-74
2021/01/11 03:56:39;;;;;;;5.00;3.83;;;1.10;99.90;;;;;;5030253;28;20232;-75
2021/01/11 03:59:05;;;;;;;8.30;4.20;;;1.10;99.90;;;;;;5032279;28;20198;-74
2021/01/11 04:01:34;;;;;;;5.47;3.90;;;1.10;99.90;;;;;;5030066;28;20191;-74
2021/01/11 04:04:00;;;;;;;6.40;4.47;;;1.00;99.90;;;;;;5029908;28;20234;-75
2021/01/11 04:06:26;;;;;;;7.80;5.23;;;1.00;99.90;;;;;;5031379;28;20461;-74
2021/01/11 04:08:52;;;;;;;6.40;3.63;;;1.00;99.90;;;;;;5030314;28;20421;-74
2021/01/11 04:11:21;;;;;;;8.47;3.90;;;1.00;99.90;;;;;;5031228;28;20265;-74
2021/01/11 04:13:50;;;;;;;6.97;3.97;;;1.00;99.90;;;;;;5032048;28;20229;-75
2021/01/11 04:16:16;;;;;;;5.37;3.33;;;1.00;99.90;;;;;;5031207;28;20814;-73
2021/01/11 04:18:43;;;;;;;8.13;4.07;;;0.90;99.90;;;;;;5031274;28;20429;-74
2021/01/11 04:21:12;;;;;;;5.57;3.60;;;0.90;99.90;;;;;;5030265;28;20414;-74
2021/01/11 04:23:38;;;;;;;7.90;4.10;;;1.10;99.90;;;;;;5030690;28;20439;-75
2021/01/11 04:26:06;;;;;;;8.80;4.43;;;1.00;99.90;;;;;;5030648;28;20831;-75
2021/01/11 04:28:31;;;;;;;7.27;4.70;;;1.10;99.90;;;;;;5032737;28;20430;-75
2021/01/11 04:30:57;;;;;;;5.03;4.00;;;1.10;99.90;;;;;;5034522;28;20443;-75
2021/01/11 04:33:23;;;;;;;6.30;3.80;;;1.20;99.90;;;;;;5035430;28;20198;-75
2021/01/11 04:35:48;;;;;;;7.80;3.60;;;1.30;99.90;;;;;;5033794;28;20433;-74
2021/01/11 04:38:14;;;;;;;7.20;4.27;;;1.20;99.90;;;;;;5035006;28;20659;-75
2021/01/11 04:40:40;;;;;;;7.73;3.73;;;1.30;99.90;;;;;;5032928;28;20205;-74
2021/01/11 04:43:15;;;;;;;5.37;3.87;;;1.40;99.90;;;;;;5034957;28;20195;-75
2021/01/11 04:45:42;;;;;;;6.30;3.80;;;1.40;99.90;;;;;;5033460;28;20199;-75
2021/01/11 04:48:08;;;;;;;5.13;3.93;;;1.40;99.90;;;;;;5034246;28;20801;-75
2021/01/11 04:50:34;;;;;;;6.53;3.60;;;1.50;99.90;;;;;;5034716;28;20406;-75
2021/01/11 04:53:06;;;;;;;6.53;4.17;;;1.50;99.90;;;;;;5034652;28;20422;-75
2021/01/11 04:55:35;;;;;;;6.23;3.80;;;1.50;99.90;;;;;;5033770;28;20808;-75
2021/01/11 04:58:09;;;;;;;6.10;3.77;;;1.50;99.90;;;;;;5034842;28;20407;-75
2021/01/11 05:00:36;;;;;;;7.23;4.13;;;1.50;99.90;;;;;;5030607;28;20998;-74
2021/01/11 05:03:04;;;;;;;5.23;3.77;;;1.60;99.90;;;;;;5032680;28;20449;-75
2021/01/11 05:05:33;;;;;;;7.10;4.00;;;1.60;99.90;;;;;;5034537;28;20453;-75
2021/01/11 05:07:58;;;;;;;8.43;4.17;;;1.50;99.90;;;;;;5034366;28;20413;-74
2021/01/11 05:10:25;;;;;;;3.93;3.23;;;1.50;99.90;;;;;;5033703;28;20444;-75
2021/01/11 05:13:06;;;;;;;3.90;3.33;;;1.50;99.90;;;;;;5033435;28;20528;-74
2021/01/11 05:15:34;;;;;;;5.23;3.80;;;1.50;99.90;;;;;;5033594;28;20441;-74
2021/01/11 05:18:00;;;;;;;6.30;4.23;;;1.50;99.90;;;;;;5033753;28;20795;-75
2021/01/11 05:20:31;;;;;;;7.03;3.77;;;1.40;99.90;;;;;;5033804;28;20540;-74
2021/01/11 05:22:58;;;;;;;6.70;4.13;;;1.40;99.90;;;;;;5033590;28;20461;-75
2021/01/11 05:25:27;;;;;;;5.70;4.50;;;1.30;99.90;;;;;;5032018;28;20418;-72
2021/01/11 05:28:03;;;;;;;4.90;3.30;;;1.30;99.90;;;;;;5033602;28;20453;-71
2021/01/11 05:30:31;;;;;;;7.60;4.80;;;1.30;99.90;;;;;;5033324;28;20426;-72
2021/01/11 05:32:57;;;;;;;5.40;3.60;;;1.20;99.90;;;;;;5031142;28;20815;-71
2021/01/11 05:35:27;;;;;;;5.70;4.80;;;1.20;99.90;;;;;;5033636;28;20430;-72
2021/01/11 05:37:59;;;;;;;6.53;4.80;;;1.20;99.90;;;;;;5033473;28;20418;-73
2021/01/11 05:40:26;;;;;;;4.60;4.13;;;1.20;99.90;;;;;;5033684;28;20454;-72
2021/01/11 05:43:00;;;;;;;6.00;4.80;;;1.20;99.90;;;;;;5033077;28;20468;-73
2021/01/11 05:45:33;;;;;;;6.20;4.50;;;1.00;99.90;;;;;;5033931;28;20468;-72
2021/01/11 05:48:12;;;;;;;7.30;4.47;;;1.00;99.90;;;;;;5033847;28;20457;-72
2021/01/11 05:50:50;;;;;;;7.77;4.07;;;1.00;99.90;;;;;;5033172;28;20444;-72
2021/01/11 05:53:26;;;;;;;4.17;3.77;;;0.90;99.90;;;;;;5033055;28;20458;-71
2021/01/11 05:55:55;;;;;;;8.80;5.37;;;0.80;99.90;;;;;;5032298;28;20461;-71
2021/01/11 05:58:27;;;;;;;5.77;5.17;;;0.80;99.90;;;;;;5032870;28;21005;-72
2021/01/11 06:00:53;;;;;;;7.07;5.13;;;0.80;99.90;;;;;;5032678;28;20481;-72
2021/01/11 06:03:19;;;;;;;13.67;5.27;;;0.80;99.90;;;;;;5032155;28;20450;-72
2021/01/11 06:05:44;;;;;;;6.90;4.47;;;0.80;99.90;;;;;;5021362;28;20239;-72
2021/01/11 06:08:13;;;;;;;6.37;4.70;;;0.80;99.90;;;;;;5012502;28;20195;-71
2021/01/11 06:10:40;;;;;;;6.67;3.90;;;0.70;99.90;;;;;;5022541;28;20230;-72
2021/01/11 06:13:09;;;;;;;9.83;5.00;;;0.70;99.90;;;;;;5032731;28;20962;-72
2021/01/11 06:15:36;;;;;;;7.90;4.90;;;0.70;99.90;;;;;;5032366;28;20426;-72
2021/01/11 06:18:06;;;;;;;8.53;4.63;;;0.70;99.90;;;;;;5032524;28;20904;-72
2021/01/11 06:20:33;;;;;;;9.03;5.50;;;0.80;99.90;;;;;;5032693;28;20459;-73
2021/01/11 06:22:59;;;;;;;5.13;4.63;;;0.70;99.90;;;;;;5032385;28;20453;-72
2021/01/11 06:25:24;;;;;;;9.80;4.27;;;0.80;99.90;;;;;;5031799;28;20430;-72
2021/01/11 06:28:02;;;;;;;8.23;4.53;;;0.80;99.90;;;;;;5033064;28;20612;-71
2021/01/11 06:30:36;;;;;;;7.70;4.30;;;0.80;99.90;;;;;;5030696;28;20175;-72
2021/01/11 06:33:08;;;;;;;8.40;4.30;;;0.80;99.90;;;;;;5031415;28;20449;-72
2021/01/11 06:35:35;;;;;;;9.40;4.70;;;0.70;99.90;;;;;;5032113;28;20521;-72
2021/01/11 06:38:19;;;;;;;6.17;5.33;;;0.80;99.90;;;;;;5025950;28;20514;-72
2021/01/11 06:40:47;;;;;;;6.93;5.57;;;0.80;99.90;;;;;;5028050;28;20458;-73
2021/01/11 06:43:14;;;;;;;8.03;5.27;;;0.80;99.90;;;;;;5031984;28;20441;-71
2021/01/11 06:45:41;;;;;;;5.37;4.00;;;0.80;99.90;;;;;;5032486;28;20769;-72
2021/01/11 06:48:09;;;;;;;7.00;4.37;;;0.80;99.90;;;;;;5031964;28;20471;-72
2021/01/11 06:50:35;;;;;;;6.90;5.17;;;0.90;99.90;;;;;;5031465;28;20435;-72
2021/01/11 06:53:04;;;;;;;7.70;4.93;;;0.90;99.90;;;;;;5032092;28;20448;-71
2021/01/11 06:55:31;;;;;;;5.23;3.93;;;0.90;99.90;;;;;;5031049;28;20973;-72
2021/01/11 06:57:58;;;;;;;6.00;4.50;;;0.90;99.90;;;;;;5032245;28;20422;-71
2021/01/11 07:00:40;;;;;;;7.63;4.83;;;1.00;99.90;;;;;;5022855;28;20465;-72
2021/01/11 07:03:07;;;;;;;7.53;4.17;;;0.90;99.90;;;;;;5032032;28;20811;-72
2021/01/11 07:05:33;;;;;;;8.23;4.60;;;1.00;99.90;;;;;;5032482;28;20428;-71
2021/01/11 07:08:02;;;;;;;6.67;4.77;;;1.00;99.90;;;;;;5031812;28;20815;-72
2021/01/11 07:10:27;;;;;;;6.03;4.20;;;1.00;99.90;;;;;;5030576;28;20179;-72
2021/01/11 07:13:19;;;;;;;5.90;4.03;;;1.00;99.90;;;;;;5031998;28;20792;-71
2021/01/11 07:16:05;;;;;;;5.97;4.87;;;1.00;99.90;;;;;;5031858;28;20366;-71
2021/01/11 07:18:36;;;;;;;4.30;3.90;;;1.00;99.90;;;;;;5030433;28;20446;-72
2021/01/11 07:21:11;;;;;;;7.33;4.87;;;1.00;99.90;;;;;;5031583;28;20460;-72
2021/01/11 07:23:37;;;;;;;6.00;4.77;;;0.90;99.90;;;;;;5030692;28;20449;-72
2021/01/11 07:26:03;;;;;;;4.87;4.37;;;0.80;99.90;;;;;;5030510;28;20422;-71
2021/01/11 07:28:29;;;;;;;5.63;4.07;;;0.70;99.90;;;;;;5031566;28;20410;-71
2021/01/11 07:30:55;;;;;;;9.97;5.87;;;0.70;99.90;;;;;;5031794;28;20233;-72
2021/01/11 07:33:24;;;;;;;11.90;4.63;;;0.70;99.90;;;;;;5031597;28;20200;-72
2021/01/11 07:35:49;;;;;;;7.43;3.97;;;0.80;99.90;;;;;;5030340;28;20216;-71
2021/01/11 07:38:18;;;;;;;9.00;5.00;;;0.80;99.90;;;;;;5031517;28;20425;-72
2021/01/11 07:40:44;;;;;;;10.70;5.07;;;0.90;99.90;;;;;;5031417;28;20479;-72
2021/01/11 07:43:10;;;;;;;7.83;5.00;;;0.90;99.90;;;;;;5031741;28;20434;-71
2021/01/11 07:45:35;;;;;;;9.20;6.20;;;0.90;99.90;;;;;;5031668;28;20540;-74
2021/01/11 07:48:01;;;;;;;10.57;6.07;;;0.90;99.90;;;;;;5031561;28;20548;-75
2021/01/11 07:50:30;;;;;;;5.63;4.20;;;0.90;99.90;;;;;;5031466;28;20171;-74
2021/01/11 07:52:56;;;;;;;8.30;5.93;;;1.10;99.90;;;;;;5031293;28;20339;-74
2021/01/11 07:55:29;;;;;;;6.40;4.27;;;1.00;99.90;;;;;;5031068;28;20426;-74
2021/01/11 07:58:01;;;;;;;14.13;5.37;;;1.00;99.90;;;;;;5031320;28;20423;-74
2021/01/11 08:00:27;;;;;;;6.63;5.03;;;1.00;99.90;;;;;;5026351;28;20460;-75
2021/01/11 08:02:55;;;;;;;9.20;4.67;;;1.00;99.90;;;;;;5034122;28;20422;-75
2021/01/11 08:05:22;;;;;;;12.70;5.20;;;1.00;99.90;;;;;;5034994;28;20176;-74
2021/01/11 08:08:01;;;;;;;9.30;5.53;;;0.80;99.90;;;;;;5033684;28;20432;-75
2021/01/11 08:10:27;;;;;;;11.13;6.10;;;0.70;99.90;;;;;;5034633;28;20971;-74
2021/01/11 08:13:03;;;;;;;9.63;4.87;;;0.70;99.90;;;;;;5034289;28;20507;-74
2021/01/11 08:15:28;;;;;;;9.70;5.00;;;0.70;99.90;;;;;;5034599;28;20422;-71
2021/01/11 08:17:54;;;;;;;5.20;4.60;;;0.60;99.90;;;;;;5030779;28;20433;-72
2021/01/11 08:20:24;;;;;;;6.50;5.10;;;0.60;99.90;;;;;;5034764;28;20221;-71
2021/01/11 08:22:50;;;;;;;8.83;6.20;;;0.60;99.90;;;;;;5034347;28;20414;-71
2021/01/11 08:25:16;;;;;;;11.20;6.10;;;0.60;99.90;;;;;;5035069;28;20422;-72
2021/01/11 08:27:46;;;;;;;12.17;6.67;;;0.60;99.90;;;;;;5034547;28;20177;-71
2021/01/11 08:30:16;;;;;;;15.57;8.17;;;0.60;99.90;;;;;;5031376;28;20197;-71
2021/01/11 08:32:42;;;;;;;10.80;7.27;;;0.70;99.90;;;;;;5032845;28;20513;-72
2021/01/11 08:35:12;;;;;;;13.37;7.87;;;0.80;99.90;;;;;;5034727;28;20471;-72
2021/01/11 08:37:39;;;;;;;14.43;8.47;;;0.80;99.90;;;;;;5034337;28;20739;-72
2021/01/11 08:40:06;;;;;;;12.17;7.13;;;0.80;99.90;;;;;;5033521;28;20486;-71
2021/01/11 08:42:33;;;;;;;14.17;8.70;;;0.90;99.90;;;;;;5034724;28;20410;-72
2021/01/11 08:45:34;;;;;;;10.70;7.30;;;0.80;99.90;;;;;;5033895;28;20474;-72
2021/01/11 08:48:11;;;;;;;12.30;7.67;;;0.90;99.90;;;;;;5029831;28;20516;-72
2021/01/11 08:50:42;;;;;;;12.20;7.33;;;1.00;99.90;;;;;;5033953;28;20474;-71
2021/01/11 08:53:24;;;;;;;12.50;8.40;;;0.90;99.90;;;;;;5034159;28;20434;-72
2021/01/11 08:55:56;;;;;;;13.53;7.80;;;0.90;99.90;;;;;;5034373;28;20643;-72
2021/01/11 08:58:24;;;;;;;13.33;8.10;;;0.90;99.90;;;;;;5032761;28;20430;-73
2021/01/11 09:00:50;;;;;;;17.00;8.13;;;1.00;99.90;;;;;;5034151;28;20465;-73
2021/01/11 09:03:15;;;;;;;13.53;9.67;;;1.00;99.90;;;;;;5034169;28;20521;-73
2021/01/11 09:05:42;;;;;;;16.37;9.50;;;1.10;99.90;;;;;;5034009;28;20927;-72
2021/01/11 09:08:17;;;;;;;11.70;7.10;;;1.10;99.90;;;;;;5032709;28;20428;-71
2021/01/11 09:10:43;;;;;;;16.10;9.50;;;1.20;99.90;;;;;;5032572;28;20487;-71
2021/01/11 09:13:20;;;;;;;8.93;7.37;;;1.20;99.90;;;;;;5032847;28;20802;-71
2021/01/11 09:15:45;;;;;;;13.13;8.00;;;1.20;99.90;;;;;;5033664;28;20429;-71
2021/01/11 09:18:13;;;;;;;12.10;7.03;;;1.20;99.90;;;;;;5033750;28;20422;-71
2021/01/11 09:20:41;;;;;;;10.43;6.73;;;1.20;99.90;;;;;;5032423;28;20894;-72
2021/01/11 09:23:08;;;;;;;9.90;7.17;;;1.10;99.90;;;;;;5032687;28;20441;-72
2021/01/11 09:25:37;;;;;;;11.33;6.80;;;1.10;99.90;;;;;;5032088;28;20804;-73
2021/01/11 09:28:05;;;;;;;10.80;7.20;;;1.20;99.90;;;;;;5032152;28;20414;-73
2021/01/11 09:30:31;;;;;;;9.87;6.60;;;1.30;99.90;;;;;;5033532;28;20513;-72
2021/01/11 09:32:57;;;;;;;10.40;6.30;;;1.30;99.90;;;;;;5033195;28;20450;-73
2021/01/11 09:35:23;;;;;;;5.90;5.30;;;1.40;99.90;;;;;;5033155;28;20428;-73
2021/01/11 09:37:49;;;;;;;10.90;6.30;;;1.50;99.90;;;;;;5033154;28;20427;-73
2021/01/11 09:40:16;;;;;;;9.67;6.27;;;1.50;99.90;;;;;;5032916;28;20829;-73
2021/01/11 09:42:44;;;;;;;9.33;7.30;;;1.50;99.90;;;;;;5032955;28;20791;-73
2021/01/11 09:45:10;;;;;;;9.97;6.60;;;1.50;99.90;;;;;;5032942;28;21027;-72
2021/01/11 09:47:35;;;;;;;8.77;6.47;;;1.40;99.90;;;;;;5033082;28;20531;-72
2021/01/11 09:50:01;;;;;;;15.97;7.73;;;1.50;99.90;;;;;;5032845;28;20425;-73
2021/01/11 09:52:28;;;;;;;17.67;11.33;;;1.40;99.90;;;;;;5031413;28;20182;-73
2021/01/11 09:54:54;;;;;;;12.03;7.87;;;1.50;99.90;;;;;;5033003;28;20442;-72
2021/01/11 09:57:20;;;;;;;10.10;7.13;;;1.50;99.90;;;;;;5033203;28;20533;-72
2021/01/11 09:59:45;;;;;;;12.30;7.37;;;1.40;99.90;;;;;;5039486;28;20457;-72
2021/01/11 10:02:11;;;;;;;14.00;6.97;;;1.50;99.90;;;;;;5042125;28;20422;-71
2021/01/11 10:04:37;;;;;;;9.60;6.17;;;1.50;99.90;;;;;;5032794;28;20246;-72
2021/01/11 10:07:05;;;;;;;10.20;6.70;;;1.60;99.90;;;;;;5031237;28;20414;-72
2021/01/11 10:09:31;;;;;;;6.30;5.00;;;1.50;99.90;;;;;;5032420;28;20232;-72
2021/01/11 10:11:59;;;;;;;7.23;5.10;;;1.60;99.90;;;;;;5031850;28;20429;-71
2021/01/11 10:14:25;;;;;;;10.47;6.57;;;1.60;99.90;;;;;;5032082;28;20204;-72
2021/01/11 10:16:51;;;;;;;6.93;5.17;;;1.60;99.90;;;;;;5032326;28;20436;-72
2021/01/11 10:19:19;;;;;;;8.60;5.70;;;1.60;99.90;;;;;;5032168;28;22425;-72
2021/01/11 10:21:45;;;;;;;8.80;6.00;;;1.70;99.90;;;;;;5031909;28;20423;-73
2021/01/11 10:24:12;;;;;;;7.80;6.70;;;1.60;99.90;;;;;;5032036;28;20442;-73
2021/01/11 10:26:42;;;;;;;9.47;6.73;;;1.60;99.90;;;;;;5031980;28;20301;-73
2021/01/11 10:29:08;;;;;;;8.23;5.87;;;1.80;99.90;;;;;;5032451;28;20435;-73
2021/01/11 10:31:34;;;;;;;9.60;5.83;;;1.80;99.90;;;;;;5030524;28;20422;-73
2021/01/11 10:34:00;;;;;;;9.33;6.40;;;1.80;99.90;;;;;;5031403;28;20195;-72
2021/01/11 10:36:26;;;;;;;6.63;5.73;;;1.90;99.90;;;;;;5031982;28;20422;-73
2021/01/11 10:38:51;;;;;;;9.90;6.43;;;2.00;99.90;;;;;;5032106;28;20254;-72
2021/01/11 10:41:19;;;;;;;10.63;7.43;;;2.00;99.90;;;;;;5031744;28;20270;-73
2021/01/11 10:43:46;;;;;;;10.83;5.90;;;2.00;99.90;;;;;;5031899;28;20199;-72
2021/01/11 10:46:15;;;;;;;14.43;5.93;;;2.10;99.90;;;;;;5031714;28;20422;-72
2021/01/11 10:48:41;;;;;;;11.40;7.80;;;2.10;99.90;;;;;;5032064;28;20422;-72
2021/01/11 10:51:10;;;;;;;9.60;6.63;;;2.20;99.90;;;;;;5031715;28;20425;-72
2021/01/11 10:53:43;;;;;;;10.07;5.87;;;2.10;99.90;;;;;;5031819;28;20818;-72
2021/01/11 10:56:11;;;;;;;7.90;5.70;;;2.10;99.90;;;;;;5031877;28;20467;-72
2021/01/11 10:58:37;;;;;;;11.03;6.23;;;2.00;99.90;;;;;;5031731;28;20472;-72
2021/01/11 11:01:06;;;;;;;7.80;6.13;;;2.10;99.90;;;;;;5031625;28;20807;-72
2021/01/11 11:03:32;;;;;;;8.73;6.07;;;2.10;99.90;;;;;;5030359;28;20955;-72
2021/01/11 11:05:58;;;;;;;8.43;6.10;;;2.10;99.90;;;;;;5031799;28;20421;-71
2021/01/11 11:08:23;;;;;;;9.93;6.60;;;2.00;99.90;;;;;;5031720;28;20421;-72
2021/01/11 11:10:49;;;;;;;8.30;5.17;;;2.00;99.90;;;;;;5031340;28;20861;-72
2021/01/11 11:13:14;;;;;;;8.40;6.13;;;2.10;99.90;;;;;;5031542;28;20199;-73
2021/01/11 11:15:44;;;;;;;9.30;6.03;;;2.00;99.90;;;;;;5031253;28;20191;-72
2021/01/11 11:18:11;;;;;;;10.97;6.73;;;2.10;99.90;;;;;;5031038;28;20178;-72
2021/01/11 11:20:36;;;;;;;8.37;5.70;;;2.00;99.90;;;;;;5032915;28;20608;-72
2021/01/11 11:23:02;;;;;;;10.93;7.23;;;2.10;99.90;;;;;;5030863;28;20517;-72
2021/01/11 11:25:28;;;;;;;10.37;6.87;;;2.10;99.90;;;;;;5030106;28;20430;-72
2021/01/11 11:27:53;;;;;;;7.90;5.70;;;2.10;99.90;;;;;;5019949;28;20168;-73
2021/01/11 11:30:19;;;;;;;11.13;6.10;;;2.00;99.90;;;;;;5031736;28;20179;-72
2021/01/11 11:32:49;;;;;;;8.30;6.20;;;2.10;99.90;;;;;;5031549;28;20182;-72
2021/01/11 11:35:16;;;;;;;18.13;7.47;;;2.00;99.90;;;;;;5024309;28;20189;-72
2021/01/11 11:37:42;;;;;;;9.63;6.60;;;2.10;99.90;;;;;;5035129;28;20414;-73
2021/01/11 11:40:10;;;;;;;9.23;6.73;;;2.10;99.90;;;;;;5035422;28;20453;-73
2021/01/11 11:42:40;;;;;;;14.57;7.27;;;2.20;99.90;;;;;;5035516;28;20455;-72
2021/01/11 11:45:08;;;;;;;13.97;7.80;;;2.20;99.90;;;;;;5034594;28;20425;-73
2021/01/11 11:47:36;;;;;;;10.70;7.60;;;2.20;99.90;;;;;;5034448;28;20445;-73
2021/01/11 11:50:06;;;;;;;11.20;7.77;;;2.20;99.90;;;;;;5034349;28;20453;-73
2021/01/11 11:52:32;;;;;;;16.70;7.83;;;2.20;99.90;;;;;;5035554;28;21103;-73
2021/01/11 11:54:58;;;;;;;10.43;7.30;;;2.30;99.90;;;;;;5034919;28;20511;-73
2021/01/11 11:57:24;;;;;;;13.83;8.93;;;2.30;99.90;;;;;;5034804;28;20900;-73
2021/01/11 11:59:49;;;;;;;12.43;8.10;;;2.40;99.90;;;;;;5035425;28;20564;-73
2021/01/11 12:02:15;;;;;;;13.13;8.87;;;2.40;99.90;;;;;;5034989;28;20230;-73
2021/01/11 12:04:41;;;;;;;12.63;8.87;;;2.50;99.90;;;;;;5035174;28;20191;-73
2021/01/11 12:07:07;;;;;;;14.27;7.17;;;2.50;99.90;;;;;;5034521;28;20573;-73
2021/01/11 12:09:33;;;;;;;11.50;8.53;;;2.60;99.90;;;;;;5033625;28;20433;-73
2021/01/11 12:12:00;;;;;;;10.10;7.40;;;2.60;99.90;;;;;;5034223;28;20426;-74
2021/01/11 12:14:25;;;;;;;9.20;6.97;;;2.70;99.90;;;;;;5034832;28;20211;-73
2021/01/11 12:16:51;;;;;;;11.63;7.70;;;2.70;99.90;;;;;;5034489;28;20453;-73
2021/01/11 12:19:18;;;;;;;17.77;7.40;;;2.60;99.90;;;;;;5034682;28;20672;-74
2021/01/11 12:21:44;;;;;;;10.97;6.87;;;2.70;99.90;;;;;;5034614;28;20501;-73
2021/01/11 12:24:10;;;;;;;11.00;7.00;;;2.70;99.90;;;;;;5034544;28;20935;-73
2021/01/11 12:26:47;;;;;;;8.27;6.70;;;2.80;99.90;;;;;;5027502;28;20963;-73
2021/01/11 12:29:14;;;;;;;10.60;7.10;;;2.80;99.90;;;;;;5033370;28;20911;-72
2021/01/11 12:31:40;;;;;;;13.30;7.73;;;2.80;99.90;;;;;;5034143;28;20441;-73
2021/01/11 12:34:07;;;;;;;9.97;7.37;;;2.80;99.90;;;;;;5034094;28;20446;-73
2021/01/11 12:36:34;;;;;;;10.97;6.70;;;2.80;99.90;;;;;;5033952;28;20464;-72
2021/01/11 12:39:01;;;;;;;10.33;6.50;;;2.90;99.90;;;;;;5033870;28;20465;-72
2021/01/11 12:41:27;;;;;;;11.90;7.37;;;3.00;99.90;;;;;;5033786;28;20410;-72
2021/01/11 12:43:53;;;;;;;12.40;8.73;;;2.90;99.90;;;;;;5034211;28;20460;-72
2021/01/11 12:46:20;;;;;;;9.90;6.30;;;3.10;99.90;;;;;;5033563;28;20432;-73
2021/01/11 12:48:48;;;;;;;10.63;8.00;;;3.10;99.90;;;;;;5033026;28;20418;-73
2021/01/11 12:51:21;;;;;;;9.90;8.10;;;3.10;99.90;;;;;;5032628;28;20425;-73
2021/01/11 12:53:51;;;;;;;9.70;7.63;;;3.10;99.90;;;;;;5033695;28;20465;-73
2021/01/11 12:56:24;;;;;;;16.20;7.77;;;3.10;99.90;;;;;;5034032;28;20461;-73
2021/01/11 12:58:55;;;;;;;11.40;7.47;;;3.20;99.90;;;;;;5034299;28;20938;-72